sensor_id;sensor_type;location;lat;lon;timestamp;temperature;humidity
28520;DHT22;15732;48.534;20.382;2023-05-07T00:01:47;15.40;99.90
28520;DHT22;15732;48.534;20.382;2023-05-07T00:04:18;15.30;99.90
28520;DHT22;15732;48.534;20.382;2023-05-07T00:06:46;15.40;99.90
28520;DHT22;15732;48.534;20.382;2023-05-07T00:09:13;15.30;99.90
28520;DHT22;15732;48.534;20.382;2023-05-07T00:11:41;15.30;99.90
28520;DHT22;15732;48.534;20.382;2023-05-07T00:14:08;15.30;99.90
28520;DHT22;15732;48.534;20.382;2023-05-07T00:16:35;15.30;99.90
28520;DHT22;15732;48.534;20.382;2023-05-07T00:19:04;15.20;99.90
28520;DHT22;15732;48.534;20.382;2023-05-07T00:21:31;15.20;99.90
28520;DHT22;15732;48.534;20.382;2023-05-07T00:24:02;15.20;99.90
28520;DHT22;15732;48.534;20.382;2023-05-07T00:26:29;15.10;99.90
28520;DHT22;15732;48.534;20.382;2023-05-07T00:28:57;15.20;99.90
28520;DHT22;15732;48.534;20.382;2023-05-07T00:31:24;15.10;99.90
28520;DHT22;15732;48.534;20.382;2023-05-07T00:33:52;15.10;99.90
28520;DHT22;15732;48.534;20.382;2023-05-07T00:36:19;15.20;99.90
28520;DHT22;15732;48.534;20.382;2023-05-07T00:38:46;15.20;99.90
28520;DHT22;15732;48.534;20.382;2023-05-07T00:41:14;15.20;99.90
28520;DHT22;15732;48.534;20.382;2023-05-07T00:43:42;15.20;99.90
28520;DHT22;15732;48.534;20.382;2023-05-07T00:46:13;15.20;99.90
28520;DHT22;15732;48.534;20.382;2023-05-07T00:48:40;15.20;99.90
28520;DHT22;15732;48.534;20.382;2023-05-07T00:51:12;15.20;99.90
28520;DHT22;15732;48.534;20.382;2023-05-07T00:53:39;15.20;99.90
28520;DHT22;15732;48.534;20.382;2023-05-07T00:56:11;15.20;99.90
28520;DHT22;15732;48.534;20.382;2023-05-07T00:58:42;15.20;99.90
28520;DHT22;15732;48.534;20.382;2023-05-07T01:01:09;15.20;99.90
28520;DHT22;15732;48.534;20.382;2023-05-07T01:03:40;15.10;99.90
28520;DHT22;15732;48.534;20.382;2023-05-07T01:06:12;15.00;99.90
28520;DHT22;15732;48.534;20.382;2023-05-07T01:08:43;15.00;99.90
28520;DHT22;15732;48.534;20.382;2023-05-07T01:11:11;15.00;99.90
28520;DHT22;15732;48.534;20.382;2023-05-07T01:13:38;15.00;99.90
28520;DHT22;15732;48.534;20.382;2023-05-07T01:16:06;15.00;99.90
28520;DHT22;15732;48.534;20.382;2023-05-07T01:18:35;15.00;99.90
28520;DHT22;15732;48.534;20.382;2023-05-07T01:21:07;14.90;99.90
28520;DHT22;15732;48.534;20.382;2023-05-07T01:23:37;14.90;99.90
28520;DHT22;15732;48.534;20.382;2023-05-07T01:26:09;14.80;99.90
28520;DHT22;15732;48.534;20.382;2023-05-07T01:28:36;14.80;99.90
28520;DHT22;15732;48.534;20.382;2023-05-07T01:31:03;14.80;99.90
28520;DHT22;15732;48.534;20.382;2023-05-07T01:33:33;14.80;99.90
28520;DHT22;15732;48.534;20.382;2023-05-07T01:36:01;14.80;99.90
28520;DHT22;15732;48.534;20.382;2023-05-07T01:38:29;14.80;99.90
28520;DHT22;15732;48.534;20.382;2023-05-07T01:41:02;14.70;99.90
28520;DHT22;15732;48.534;20.382;2023-05-07T01:43:30;14.70;99.90
28520;DHT22;15732;48.534;20.382;2023-05-07T01:45:57;14.60;99.90
28520;DHT22;15732;48.534;20.382;2023-05-07T01:48:25;14.60;99.90
28520;DHT22;15732;48.534;20.382;2023-05-07T01:50:53;14.60;99.90
28520;DHT22;15732;48.534;20.382;2023-05-07T01:53:21;14.60;99.90
28520;DHT22;15732;48.534;20.382;2023-05-07T01:55:49;14.60;99.90
28520;DHT22;15732;48.534;20.382;2023-05-07T01:58:16;14.60;99.90
28520;DHT22;15732;48.534;20.382;2023-05-07T02:00:43;14.60;99.90
28520;DHT22;15732;48.534;20.382;2023-05-07T02:03:11;14.50;99.90
28520;DHT22;15732;48.534;20.382;2023-05-07T02:05:38;14.50;99.90
28520;DHT22;15732;48.534;20.382;2023-05-07T02:08:06;14.40;99.90
28520;DHT22;15732;48.534;20.382;2023-05-07T02:10:33;14.40;99.90
28520;DHT22;15732;48.534;20.382;2023-05-07T02:13:05;14.40;99.90
28520;DHT22;15732;48.534;20.382;2023-05-07T02:15:32;14.30;99.90
28520;DHT22;15732;48.534;20.382;2023-05-07T02:18:02;14.30;99.90
28520;DHT22;15732;48.534;20.382;2023-05-07T02:20:29;14.30;99.90
28520;DHT22;15732;48.534;20.382;2023-05-07T02:22:56;14.30;99.90
28520;DHT22;15732;48.534;20.382;2023-05-07T02:25:28;14.20;99.90
28520;DHT22;15732;48.534;20.382;2023-05-07T02:27:56;14.20;99.90
28520;DHT22;15732;48.534;20.382;2023-05-07T02:30:24;14.20;99.90
28520;DHT22;15732;48.534;20.382;2023-05-07T02:32:51;14.20;99.90
28520;DHT22;15732;48.534;20.382;2023-05-07T02:35:19;14.20;99.90
28520;DHT22;15732;48.534;20.382;2023-05-07T02:37:46;14.10;99.90
28520;DHT22;15732;48.534;20.382;2023-05-07T02:40:13;14.10;99.90
28520;DHT22;15732;48.534;20.382;2023-05-07T02:42:41;14.10;99.90
28520;DHT22;15732;48.534;20.382;2023-05-07T02:45:10;14.10;99.90
28520;DHT22;15732;48.534;20.382;2023-05-07T02:47:37;14.10;99.90
28520;DHT22;15732;48.534;20.382;2023-05-07T02:50:06;14.20;99.90
28520;DHT22;15732;48.534;20.382;2023-05-07T03:01:58;14.00;99.90
28520;DHT22;15732;48.534;20.382;2023-05-07T03:04:26;14.00;99.90
28520;DHT22;15732;48.534;20.382;2023-05-07T03:06:53;14.00;99.90
28520;DHT22;15732;48.534;20.382;2023-05-07T03:09:20;14.00;99.90
28520;DHT22;15732;48.534;20.382;2023-05-07T03:11:47;14.00;99.90
28520;DHT22;15732;48.534;20.382;2023-05-07T03:14:19;14.00;99.90
28520;DHT22;15732;48.534;20.382;2023-05-07T03:16:47;14.00;99.90
28520;DHT22;15732;48.534;20.382;2023-05-07T03:19:18;13.90;99.90
28520;DHT22;15732;48.534;20.382;2023-05-07T03:21:45;13.90;99.90
28520;DHT22;15732;48.534;20.382;2023-05-07T03:24:16;13.90;99.90
28520;DHT22;15732;48.534;20.382;2023-05-07T03:26:44;13.90;99.90
28520;DHT22;15732;48.534;20.382;2023-05-07T03:29:15;13.90;99.90
28520;DHT22;15732;48.534;20.382;2023-05-07T03:31:42;13.90;99.90
28520;DHT22;15732;48.534;20.382;2023-05-07T03:34:09;13.90;99.90
28520;DHT22;15732;48.534;20.382;2023-05-07T03:36:36;13.90;99.90
28520;DHT22;15732;48.534;20.382;2023-05-07T03:39:07;13.80;99.90
28520;DHT22;15732;48.534;20.382;2023-05-07T03:41:34;13.80;99.90
28520;DHT22;15732;48.534;20.382;2023-05-07T03:44:02;13.80;99.90
28520;DHT22;15732;48.534;20.382;2023-05-07T03:46:29;13.80;99.90
28520;DHT22;15732;48.534;20.382;2023-05-07T03:48:57;13.80;99.90
28520;DHT22;15732;48.534;20.382;2023-05-07T03:51:24;13.80;99.90
28520;DHT22;15732;48.534;20.382;2023-05-07T03:53:52;13.80;99.90
28520;DHT22;15732;48.534;20.382;2023-05-07T03:56:24;13.90;99.90
28520;DHT22;15732;48.534;20.382;2023-05-07T03:58:53;13.90;99.90
28520;DHT22;15732;48.534;20.382;2023-05-07T04:01:20;13.90;99.90
28520;DHT22;15732;48.534;20.382;2023-05-07T04:03:47;14.00;99.90
28520;DHT22;15732;48.534;20.382;2023-05-07T04:06:16;14.00;99.90
28520;DHT22;15732;48.534;20.382;2023-05-07T04:08:46;14.00;99.90
28520;DHT22;15732;48.534;20.382;2023-05-07T04:11:13;14.10;99.90
28520;DHT22;15732;48.534;20.382;2023-05-07T04:13:40;14.00;99.90
28520;DHT22;15732;48.534;20.382;2023-05-07T04:16:08;14.00;99.90
28520;DHT22;15732;48.534;20.382;2023-05-07T04:18:35;14.00;99.90
28520;DHT22;15732;48.534;20.382;2023-05-07T04:21:02;13.90;99.90
28520;DHT22;15732;48.534;20.382;2023-05-07T04:23:30;13.90;99.90
28520;DHT22;15732;48.534;20.382;2023-05-07T04:25:57;14.00;99.90
28520;DHT22;15732;48.534;20.382;2023-05-07T04:28:24;14.00;99.90
28520;DHT22;15732;48.534;20.382;2023-05-07T04:30:52;14.10;99.90
28520;DHT22;15732;48.534;20.382;2023-05-07T04:33:23;14.10;99.90
28520;DHT22;15732;48.534;20.382;2023-05-07T04:35:50;14.10;99.90
28520;DHT22;15732;48.534;20.382;2023-05-07T04:38:17;14.10;99.90
28520;DHT22;15732;48.534;20.382;2023-05-07T04:40:44;14.20;99.90
28520;DHT22;15732;48.534;20.382;2023-05-07T04:43:13;14.20;99.90
28520;DHT22;15732;48.534;20.382;2023-05-07T04:45:40;14.20;99.90
28520;DHT22;15732;48.534;20.382;2023-05-07T04:48:09;14.20;99.90
28520;DHT22;15732;48.534;20.382;2023-05-07T04:50:37;14.30;99.90
28520;DHT22;15732;48.534;20.382;2023-05-07T04:53:05;14.30;99.90
28520;DHT22;15732;48.534;20.382;2023-05-07T04:55:32;14.40;99.90
28520;DHT22;15732;48.534;20.382;2023-05-07T04:57:59;14.40;99.90
28520;DHT22;15732;48.534;20.382;2023-05-07T05:00:27;14.50;99.90
28520;DHT22;15732;48.534;20.382;2023-05-07T05:02:55;14.50;99.90
28520;DHT22;15732;48.534;20.382;2023-05-07T05:05:22;14.50;99.90
28520;DHT22;15732;48.534;20.382;2023-05-07T05:07:49;14.60;99.90
28520;DHT22;15732;48.534;20.382;2023-05-07T05:10:18;14.60;99.90
28520;DHT22;15732;48.534;20.382;2023-05-07T05:12:45;14.70;99.90
28520;DHT22;15732;48.534;20.382;2023-05-07T05:15:13;14.70;99.90
28520;DHT22;15732;48.534;20.382;2023-05-07T05:17:40;14.70;99.90
28520;DHT22;15732;48.534;20.382;2023-05-07T05:20:11;14.70;99.90
28520;DHT22;15732;48.534;20.382;2023-05-07T05:22:40;14.80;99.90
28520;DHT22;15732;48.534;20.382;2023-05-07T05:25:08;14.90;99.90
28520;DHT22;15732;48.534;20.382;2023-05-07T05:27:35;15.00;99.90
28520;DHT22;15732;48.534;20.382;2023-05-07T05:30:06;15.20;99.90
28520;DHT22;15732;48.534;20.382;2023-05-07T05:32:34;15.30;99.90
28520;DHT22;15732;48.534;20.382;2023-05-07T05:35:02;15.50;99.90
28520;DHT22;15732;48.534;20.382;2023-05-07T05:37:29;15.50;99.90
28520;DHT22;15732;48.534;20.382;2023-05-07T05:39:57;15.60;99.90
28520;DHT22;15732;48.534;20.382;2023-05-07T05:42:25;15.60;99.90
28520;DHT22;15732;48.534;20.382;2023-05-07T05:44:56;15.70;99.90
28520;DHT22;15732;48.534;20.382;2023-05-07T05:47:24;15.70;99.90
28520;DHT22;15732;48.534;20.382;2023-05-07T05:49:55;15.80;99.90
28520;DHT22;15732;48.534;20.382;2023-05-07T05:52:22;15.70;99.90
28520;DHT22;15732;48.534;20.382;2023-05-07T05:54:53;15.70;99.90
28520;DHT22;15732;48.534;20.382;2023-05-07T05:57:19;15.60;99.90
28520;DHT22;15732;48.534;20.382;2023-05-07T05:59:50;15.50;99.90
28520;DHT22;15732;48.534;20.382;2023-05-07T06:02:18;15.40;99.90
28520;DHT22;15732;48.534;20.382;2023-05-07T06:04:46;15.50;99.90
28520;DHT22;15732;48.534;20.382;2023-05-07T06:07:13;15.50;99.90
28520;DHT22;15732;48.534;20.382;2023-05-07T06:09:44;15.50;99.90
28520;DHT22;15732;48.534;20.382;2023-05-07T06:12:12;15.50;99.90
28520;DHT22;15732;48.534;20.382;2023-05-07T06:14:39;15.60;99.90
28520;DHT22;15732;48.534;20.382;2023-05-07T06:17:07;15.70;99.90
28520;DHT22;15732;48.534;20.382;2023-05-07T06:19:34;15.70;99.90
28520;DHT22;15732;48.534;20.382;2023-05-07T06:22:05;15.70;99.90
28520;DHT22;15732;48.534;20.382;2023-05-07T06:24:32;15.80;99.90
28520;DHT22;15732;48.534;20.382;2023-05-07T06:27:00;15.90;99.90
28520;DHT22;15732;48.534;20.382;2023-05-07T06:29:27;15.90;99.90
28520;DHT22;15732;48.534;20.382;2023-05-07T06:31:56;15.90;99.90
28520;DHT22;15732;48.534;20.382;2023-05-07T06:34:32;16.00;99.90
28520;DHT22;15732;48.534;20.382;2023-05-07T06:36:59;16.20;99.90
28520;DHT22;15732;48.534;20.382;2023-05-07T06:39:27;16.30;99.90
28520;DHT22;15732;48.534;20.382;2023-05-07T06:41:54;16.40;99.90
28520;DHT22;15732;48.534;20.382;2023-05-07T06:44:20;16.50;99.90
28520;DHT22;15732;48.534;20.382;2023-05-07T06:46:48;16.70;99.90
28520;DHT22;15732;48.534;20.382;2023-05-07T06:49:14;16.90;99.90
28520;DHT22;15732;48.534;20.382;2023-05-07T06:51:41;17.10;99.90
28520;DHT22;15732;48.534;20.382;2023-05-07T06:54:09;17.30;99.90
28520;DHT22;15732;48.534;20.382;2023-05-07T06:56:36;17.50;99.90
28520;DHT22;15732;48.534;20.382;2023-05-07T06:59:04;17.70;99.90
28520;DHT22;15732;48.534;20.382;2023-05-07T07:01:31;17.70;99.90
28520;DHT22;15732;48.534;20.382;2023-05-07T07:03:58;17.80;99.90
28520;DHT22;15732;48.534;20.382;2023-05-07T07:06:25;18.00;99.90
28520;DHT22;15732;48.534;20.382;2023-05-07T07:08:52;18.00;99.90
28520;DHT22;15732;48.534;20.382;2023-05-07T07:11:20;18.10;99.90
28520;DHT22;15732;48.534;20.382;2023-05-07T07:13:47;18.20;99.90
28520;DHT22;15732;48.534;20.382;2023-05-07T07:16:14;18.30;99.90
28520;DHT22;15732;48.534;20.382;2023-05-07T07:18:45;18.40;99.90
28520;DHT22;15732;48.534;20.382;2023-05-07T07:21:17;18.50;99.90
28520;DHT22;15732;48.534;20.382;2023-05-07T07:23:44;18.60;99.90
28520;DHT22;15732;48.534;20.382;2023-05-07T07:26:11;18.60;99.90
28520;DHT22;15732;48.534;20.382;2023-05-07T07:28:45;18.60;99.90
28520;DHT22;15732;48.534;20.382;2023-05-07T07:31:12;18.60;99.90
28520;DHT22;15732;48.534;20.382;2023-05-07T07:33:40;18.70;99.90
28520;DHT22;15732;48.534;20.382;2023-05-07T07:36:07;18.80;99.90
28520;DHT22;15732;48.534;20.382;2023-05-07T07:38:34;18.80;99.90
28520;DHT22;15732;48.534;20.382;2023-05-07T07:41:02;18.80;99.90
28520;DHT22;15732;48.534;20.382;2023-05-07T07:43:29;18.90;99.90
28520;DHT22;15732;48.534;20.382;2023-05-07T07:45:57;18.90;99.90
28520;DHT22;15732;48.534;20.382;2023-05-07T07:48:24;18.90;99.90
28520;DHT22;15732;48.534;20.382;2023-05-07T07:50:52;18.90;99.90
28520;DHT22;15732;48.534;20.382;2023-05-07T07:53:19;18.90;99.90
28520;DHT22;15732;48.534;20.382;2023-05-07T07:55:46;18.90;99.90
28520;DHT22;15732;48.534;20.382;2023-05-07T07:58:13;18.80;99.90
28520;DHT22;15732;48.534;20.382;2023-05-07T08:00:44;18.80;99.90
28520;DHT22;15732;48.534;20.382;2023-05-07T08:03:12;18.80;99.90
28520;DHT22;15732;48.534;20.382;2023-05-07T08:05:39;18.80;99.90
28520;DHT22;15732;48.534;20.382;2023-05-07T08:08:06;18.80;99.90
28520;DHT22;15732;48.534;20.382;2023-05-07T08:10:33;18.80;99.90
28520;DHT22;15732;48.534;20.382;2023-05-07T08:13:01;18.80;99.90
28520;DHT22;15732;48.534;20.382;2023-05-07T08:15:30;18.90;99.90
28520;DHT22;15732;48.534;20.382;2023-05-07T08:17:58;19.10;99.90
28520;DHT22;15732;48.534;20.382;2023-05-07T08:20:26;19.20;99.90
28520;DHT22;15732;48.534;20.382;2023-05-07T08:22:54;19.30;99.90
28520;DHT22;15732;48.534;20.382;2023-05-07T08:25:21;19.50;99.90
28520;DHT22;15732;48.534;20.382;2023-05-07T08:27:48;19.60;99.90
28520;DHT22;15732;48.534;20.382;2023-05-07T08:30:16;19.70;99.90
28520;DHT22;15732;48.534;20.382;2023-05-07T08:32:43;19.80;99.90
28520;DHT22;15732;48.534;20.382;2023-05-07T08:35:10;19.90;99.90
28520;DHT22;15732;48.534;20.382;2023-05-07T08:37:38;20.00;99.90
28520;DHT22;15732;48.534;20.382;2023-05-07T08:40:07;20.10;99.90
28520;DHT22;15732;48.534;20.382;2023-05-07T08:42:38;20.10;99.90
28520;DHT22;15732;48.534;20.382;2023-05-07T08:45:11;20.20;99.90
28520;DHT22;15732;48.534;20.382;2023-05-07T08:47:43;20.20;99.90
28520;DHT22;15732;48.534;20.382;2023-05-07T08:50:14;20.20;99.90
28520;DHT22;15732;48.534;20.382;2023-05-07T08:52:42;20.20;99.90
28520;DHT22;15732;48.534;20.382;2023-05-07T08:55:10;20.20;99.90
28520;DHT22;15732;48.534;20.382;2023-05-07T08:57:38;20.30;99.90
28520;DHT22;15732;48.534;20.382;2023-05-07T09:00:06;20.40;99.90
28520;DHT22;15732;48.534;20.382;2023-05-07T09:02:35;20.40;99.90
28520;DHT22;15732;48.534;20.382;2023-05-07T09:05:03;20.50;99.90
28520;DHT22;15732;48.534;20.382;2023-05-07T09:07:30;20.60;99.90
28520;DHT22;15732;48.534;20.382;2023-05-07T09:09:57;20.60;99.90
28520;DHT22;15732;48.534;20.382;2023-05-07T09:12:25;20.60;99.90
28520;DHT22;15732;48.534;20.382;2023-05-07T09:14:52;20.60;99.90
28520;DHT22;15732;48.534;20.382;2023-05-07T09:17:20;20.70;99.90
28520;DHT22;15732;48.534;20.382;2023-05-07T09:19:47;20.70;99.90
28520;DHT22;15732;48.534;20.382;2023-05-07T09:22:14;20.70;99.90
28520;DHT22;15732;48.534;20.382;2023-05-07T09:24:48;20.60;99.90
28520;DHT22;15732;48.534;20.382;2023-05-07T09:27:15;20.60;99.90
28520;DHT22;15732;48.534;20.382;2023-05-07T09:29:43;20.50;99.90
28520;DHT22;15732;48.534;20.382;2023-05-07T09:32:10;20.50;99.90
28520;DHT22;15732;48.534;20.382;2023-05-07T09:34:38;20.50;99.90
28520;DHT22;15732;48.534;20.382;2023-05-07T09:37:06;20.50;99.90
28520;DHT22;15732;48.534;20.382;2023-05-07T09:39:43;20.50;99.90
28520;DHT22;15732;48.534;20.382;2023-05-07T09:42:09;20.50;99.90
28520;DHT22;15732;48.534;20.382;2023-05-07T09:44:38;20.40;99.90
28520;DHT22;15732;48.534;20.382;2023-05-07T09:47:06;20.40;99.90
28520;DHT22;15732;48.534;20.382;2023-05-07T09:49:37;20.40;99.90
28520;DHT22;15732;48.534;20.382;2023-05-07T09:52:05;20.40;99.90
28520;DHT22;15732;48.534;20.382;2023-05-07T09:54:33;20.50;99.90
28520;DHT22;15732;48.534;20.382;2023-05-07T09:57:02;20.50;99.90
28520;DHT22;15732;48.534;20.382;2023-05-07T09:59:32;20.60;99.90
28520;DHT22;15732;48.534;20.382;2023-05-07T10:02:00;20.60;99.90
28520;DHT22;15732;48.534;20.382;2023-05-07T10:04:27;20.60;99.90
28520;DHT22;15732;48.534;20.382;2023-05-07T10:06:54;20.60;99.90
28520;DHT22;15732;48.534;20.382;2023-05-07T10:09:22;20.70;99.90
28520;DHT22;15732;48.534;20.382;2023-05-07T10:11:49;20.70;99.90
28520;DHT22;15732;48.534;20.382;2023-05-07T10:14:17;20.80;99.90
28520;DHT22;15732;48.534;20.382;2023-05-07T10:16:47;20.80;99.90
28520;DHT22;15732;48.534;20.382;2023-05-07T10:19:14;20.80;99.90
28520;DHT22;15732;48.534;20.382;2023-05-07T10:21:51;20.80;99.90
28520;DHT22;15732;48.534;20.382;2023-05-07T10:24:25;20.80;99.90
28520;DHT22;15732;48.534;20.382;2023-05-07T10:26:54;20.80;99.90
28520;DHT22;15732;48.534;20.382;2023-05-07T10:32:26;20.90;99.90
28520;DHT22;15732;48.534;20.382;2023-05-07T10:35:00;20.90;99.90
28520;DHT22;15732;48.534;20.382;2023-05-07T10:37:28;20.90;99.90
28520;DHT22;15732;48.534;20.382;2023-05-07T10:39:55;20.90;99.90
28520;DHT22;15732;48.534;20.382;2023-05-07T10:42:23;20.80;99.90
28520;DHT22;15732;48.534;20.382;2023-05-07T10:44:51;20.80;99.90
28520;DHT22;15732;48.534;20.382;2023-05-07T10:47:21;20.60;99.90
28520;DHT22;15732;48.534;20.382;2023-05-07T10:52:20;20.60;99.90
28520;DHT22;15732;48.534;20.382;2023-05-07T10:54:47;20.50;99.90
28520;DHT22;15732;48.534;20.382;2023-05-07T10:57:35;20.50;99.90
28520;DHT22;15732;48.534;20.382;2023-05-07T11:05:29;20.40;99.90
28520;DHT22;15732;48.534;20.382;2023-05-07T11:08:02;20.40;99.90
28520;DHT22;15732;48.534;20.382;2023-05-07T11:10:55;20.50;99.90
28520;DHT22;15732;48.534;20.382;2023-05-07T11:13:57;20.60;99.90
28520;DHT22;15732;48.534;20.382;2023-05-07T11:16:25;20.70;99.90
28520;DHT22;15732;48.534;20.382;2023-05-07T11:18:56;20.70;99.90
28520;DHT22;15732;48.534;20.382;2023-05-07T11:21:36;20.80;99.90
28520;DHT22;15732;48.534;20.382;2023-05-07T11:24:07;20.80;99.90
28520;DHT22;15732;48.534;20.382;2023-05-07T11:26:47;20.80;99.90
28520;DHT22;15732;48.534;20.382;2023-05-07T11:29:19;20.90;99.90
28520;DHT22;15732;48.534;20.382;2023-05-07T11:31:51;20.90;99.90
28520;DHT22;15732;48.534;20.382;2023-05-07T11:34:22;20.90;99.90
28520;DHT22;15732;48.534;20.382;2023-05-07T11:36:54;20.90;99.90
28520;DHT22;15732;48.534;20.382;2023-05-07T11:39:32;21.00;99.90
28520;DHT22;15732;48.534;20.382;2023-05-07T11:42:02;21.10;99.90
28520;DHT22;15732;48.534;20.382;2023-05-07T11:44:49;21.10;99.90
28520;DHT22;15732;48.534;20.382;2023-05-07T11:47:20;21.20;99.90
28520;DHT22;15732;48.534;20.382;2023-05-07T11:49:51;21.20;99.90
28520;DHT22;15732;48.534;20.382;2023-05-07T11:52:23;21.30;99.90
28520;DHT22;15732;48.534;20.382;2023-05-07T11:54:57;21.30;99.90
28520;DHT22;15732;48.534;20.382;2023-05-07T11:57:24;21.30;99.90
28520;DHT22;15732;48.534;20.382;2023-05-07T11:59:55;21.30;99.90
28520;DHT22;15732;48.534;20.382;2023-05-07T12:02:22;21.20;99.90
28520;DHT22;15732;48.534;20.382;2023-05-07T12:04:52;21.20;99.90
28520;DHT22;15732;48.534;20.382;2023-05-07T12:07:18;21.20;99.90
28520;DHT22;15732;48.534;20.382;2023-05-07T12:09:46;21.20;99.90
28520;DHT22;15732;48.534;20.382;2023-05-07T12:12:14;21.30;99.90
28520;DHT22;15732;48.534;20.382;2023-05-07T12:14:46;21.30;99.90
28520;DHT22;15732;48.534;20.382;2023-05-07T12:17:13;21.30;99.90
28520;DHT22;15732;48.534;20.382;2023-05-07T12:19:41;21.30;99.90
28520;DHT22;15732;48.534;20.382;2023-05-07T12:22:09;21.30;99.90
28520;DHT22;15732;48.534;20.382;2023-05-07T12:24:44;21.30;99.90
28520;DHT22;15732;48.534;20.382;2023-05-07T12:27:16;21.40;99.90
28520;DHT22;15732;48.534;20.382;2023-05-07T12:29:48;21.40;99.90
28520;DHT22;15732;48.534;20.382;2023-05-07T12:32:20;21.40;99.90
28520;DHT22;15732;48.534;20.382;2023-05-07T12:34:50;21.40;99.90
28520;DHT22;15732;48.534;20.382;2023-05-07T12:37:23;21.50;99.90
28520;DHT22;15732;48.534;20.382;2023-05-07T12:40:05;21.50;99.90
28520;DHT22;15732;48.534;20.382;2023-05-07T12:42:37;21.50;99.90
28520;DHT22;15732;48.534;20.382;2023-05-07T12:45:11;21.50;99.90
28520;DHT22;15732;48.534;20.382;2023-05-07T12:47:38;21.50;99.90
28520;DHT22;15732;48.534;20.382;2023-05-07T12:50:07;21.50;99.90
28520;DHT22;15732;48.534;20.382;2023-05-07T12:52:35;21.50;99.90
28520;DHT22;15732;48.534;20.382;2023-05-07T12:55:26;21.60;99.90
28520;DHT22;15732;48.534;20.382;2023-05-07T12:57:53;21.40;99.90
28520;DHT22;15732;48.534;20.382;2023-05-07T13:00:39;21.00;99.90
28520;DHT22;15732;48.534;20.382;2023-05-07T13:03:06;20.50;99.90
28520;DHT22;15732;48.534;20.382;2023-05-07T13:05:33;20.20;99.90
28520;DHT22;15732;48.534;20.382;2023-05-07T13:08:01;20.00;99.90
28520;DHT22;15732;48.534;20.382;2023-05-07T13:10:27;19.80;99.90
28520;DHT22;15732;48.534;20.382;2023-05-07T13:12:55;19.50;99.90
28520;DHT22;15732;48.534;20.382;2023-05-07T13:15:22;19.30;99.90
28520;DHT22;15732;48.534;20.382;2023-05-07T13:17:49;19.20;99.90
28520;DHT22;15732;48.534;20.382;2023-05-07T13:20:17;19.00;99.90
28520;DHT22;15732;48.534;20.382;2023-05-07T13:22:44;19.00;99.90
28520;DHT22;15732;48.534;20.382;2023-05-07T13:25:11;18.90;99.90
28520;DHT22;15732;48.534;20.382;2023-05-07T13:27:39;18.90;99.90
28520;DHT22;15732;48.534;20.382;2023-05-07T13:30:06;18.80;99.90
28520;DHT22;15732;48.534;20.382;2023-05-07T13:32:34;18.70;99.90
28520;DHT22;15732;48.534;20.382;2023-05-07T13:35:02;18.60;99.90
28520;DHT22;15732;48.534;20.382;2023-05-07T13:37:31;18.50;99.90
28520;DHT22;15732;48.534;20.382;2023-05-07T13:39:58;18.30;99.90
28520;DHT22;15732;48.534;20.382;2023-05-07T13:42:25;18.30;99.90
28520;DHT22;15732;48.534;20.382;2023-05-07T13:44:53;18.10;99.90
28520;DHT22;15732;48.534;20.382;2023-05-07T13:47:20;18.20;99.90
28520;DHT22;15732;48.534;20.382;2023-05-07T13:49:47;18.20;99.90
28520;DHT22;15732;48.534;20.382;2023-05-07T13:52:16;18.20;99.90
28520;DHT22;15732;48.534;20.382;2023-05-07T13:54:43;18.30;99.90
28520;DHT22;15732;48.534;20.382;2023-05-07T13:57:10;18.30;99.90
28520;DHT22;15732;48.534;20.382;2023-05-07T13:59:37;18.40;99.90
28520;DHT22;15732;48.534;20.382;2023-05-07T14:02:05;18.50;99.90
28520;DHT22;15732;48.534;20.382;2023-05-07T14:04:32;18.60;99.90
28520;DHT22;15732;48.534;20.382;2023-05-07T14:06:59;18.60;99.90
28520;DHT22;15732;48.534;20.382;2023-05-07T14:09:26;18.70;99.90
28520;DHT22;15732;48.534;20.382;2023-05-07T14:11:53;18.60;99.90
28520;DHT22;15732;48.534;20.382;2023-05-07T14:14:21;18.60;99.90
28520;DHT22;15732;48.534;20.382;2023-05-07T14:16:50;18.40;99.90
28520;DHT22;15732;48.534;20.382;2023-05-07T14:19:17;18.40;99.90
28520;DHT22;15732;48.534;20.382;2023-05-07T14:21:44;18.20;99.90
28520;DHT22;15732;48.534;20.382;2023-05-07T14:24:11;18.20;99.90
28520;DHT22;15732;48.534;20.382;2023-05-07T14:26:38;18.20;99.90
28520;DHT22;15732;48.534;20.382;2023-05-07T14:29:06;18.10;99.90
28520;DHT22;15732;48.534;20.382;2023-05-07T14:31:33;18.20;99.90
28520;DHT22;15732;48.534;20.382;2023-05-07T14:34:00;18.20;99.90
28520;DHT22;15732;48.534;20.382;2023-05-07T14:36:28;18.20;99.90
28520;DHT22;15732;48.534;20.382;2023-05-07T14:38:58;18.30;99.90
28520;DHT22;15732;48.534;20.382;2023-05-07T14:41:26;18.30;99.90
28520;DHT22;15732;48.534;20.382;2023-05-07T14:43:53;18.30;99.90
28520;DHT22;15732;48.534;20.382;2023-05-07T14:46:20;18.30;99.90
28520;DHT22;15732;48.534;20.382;2023-05-07T14:48:47;18.30;99.90
28520;DHT22;15732;48.534;20.382;2023-05-07T14:51:14;18.30;99.90
28520;DHT22;15732;48.534;20.382;2023-05-07T14:53:42;18.30;99.90
28520;DHT22;15732;48.534;20.382;2023-05-07T14:56:09;18.30;99.90
28520;DHT22;15732;48.534;20.382;2023-05-07T14:58:36;18.20;99.90
28520;DHT22;15732;48.534;20.382;2023-05-07T15:01:03;18.30;99.90
28520;DHT22;15732;48.534;20.382;2023-05-07T15:03:30;18.20;99.90
28520;DHT22;15732;48.534;20.382;2023-05-07T15:05:57;18.20;99.90
28520;DHT22;15732;48.534;20.382;2023-05-07T15:08:24;18.20;99.90
28520;DHT22;15732;48.534;20.382;2023-05-07T15:10:52;18.10;99.90
28520;DHT22;15732;48.534;20.382;2023-05-07T15:13:19;18.20;99.90
28520;DHT22;15732;48.534;20.382;2023-05-07T15:15:47;18.20;99.90
28520;DHT22;15732;48.534;20.382;2023-05-07T15:18:14;18.20;99.90
28520;DHT22;15732;48.534;20.382;2023-05-07T15:20:42;18.20;99.90
28520;DHT22;15732;48.534;20.382;2023-05-07T15:23:08;18.30;99.90
28520;DHT22;15732;48.534;20.382;2023-05-07T15:25:40;18.20;99.90
28520;DHT22;15732;48.534;20.382;2023-05-07T15:28:07;18.10;99.90
28520;DHT22;15732;48.534;20.382;2023-05-07T15:30:34;18.10;99.90
28520;DHT22;15732;48.534;20.382;2023-05-07T15:33:02;18.00;99.90
28520;DHT22;15732;48.534;20.382;2023-05-07T15:35:29;18.00;99.90
28520;DHT22;15732;48.534;20.382;2023-05-07T15:37:57;18.00;99.90
28520;DHT22;15732;48.534;20.382;2023-05-07T15:40:24;17.90;99.90
28520;DHT22;15732;48.534;20.382;2023-05-07T15:42:54;18.00;99.90
28520;DHT22;15732;48.534;20.382;2023-05-07T15:45:23;18.00;99.90